sensor_id;sensor_type;location;lat;lon;timestamp;P1;durP1;ratioP1;P2;durP2;ratioP2
10902;SDS011;5504;47.312;11.060;2023-07-29T00:00:34;3.53;;;2.60;;
10902;SDS011;5504;47.312;11.060;2023-07-29T00:02:59;3.20;;;2.70;;
10902;SDS011;5504;47.312;11.060;2023-07-29T00:05:25;2.83;;;2.40;;
10902;SDS011;5504;47.312;11.060;2023-07-29T00:07:51;2.80;;;2.50;;
10902;SDS011;5504;47.312;11.060;2023-07-29T00:10:17;3.37;;;2.40;;
10902;SDS011;5504;47.312;11.060;2023-07-29T00:12:43;2.67;;;2.17;;
10902;SDS011;5504;47.312;11.060;2023-07-29T00:15:08;2.27;;;2.03;;
10902;SDS011;5504;47.312;11.060;2023-07-29T00:17:34;2.83;;;2.23;;
10902;SDS011;5504;47.312;11.060;2023-07-29T00:20:00;2.70;;;2.10;;
10902;SDS011;5504;47.312;11.060;2023-07-29T00:22:26;3.57;;;2.60;;
10902;SDS011;5504;47.312;11.060;2023-07-29T00:24:52;3.63;;;2.60;;
10902;SDS011;5504;47.312;11.060;2023-07-29T00:27:22;3.37;;;2.83;;
10902;SDS011;5504;47.312;11.060;2023-07-29T00:29:48;3.47;;;2.70;;
10902;SDS011;5504;47.312;11.060;2023-07-29T00:32:14;3.10;;;2.80;;
10902;SDS011;5504;47.312;11.060;2023-07-29T00:34:40;2.90;;;2.60;;
10902;SDS011;5504;47.312;11.060;2023-07-29T00:37:05;3.83;;;2.70;;
10902;SDS011;5504;47.312;11.060;2023-07-29T00:39:31;3.83;;;3.00;;
10902;SDS011;5504;47.312;11.060;2023-07-29T00:41:57;5.33;;;2.80;;
10902;SDS011;5504;47.312;11.060;2023-07-29T00:44:23;3.77;;;2.80;;
10902;SDS011;5504;47.312;11.060;2023-07-29T00:46:52;3.67;;;2.80;;
10902;SDS011;5504;47.312;11.060;2023-07-29T00:49:18;3.73;;;2.50;;
10902;SDS011;5504;47.312;11.060;2023-07-29T00:51:45;3.27;;;2.90;;
10902;SDS011;5504;47.312;11.060;2023-07-29T00:54:10;3.67;;;2.60;;
10902;SDS011;5504;47.312;11.060;2023-07-29T00:56:36;4.07;;;2.60;;
10902;SDS011;5504;47.312;11.060;2023-07-29T00:59:03;3.00;;;2.47;;
10902;SDS011;5504;47.312;11.060;2023-07-29T01:01:29;2.80;;;2.43;;
10902;SDS011;5504;47.312;11.060;2023-07-29T01:03:55;2.80;;;2.43;;
10902;SDS011;5504;47.312;11.060;2023-07-29T01:09:12;3.37;;;2.57;;
10902;SDS011;5504;47.312;11.060;2023-07-29T01:11:52;3.40;;;2.70;;
10902;SDS011;5504;47.312;11.060;2023-07-29T01:15:19;2.77;;;2.57;;
10902;SDS011;5504;47.312;11.060;2023-07-29T01:17:59;3.47;;;2.47;;
10902;SDS011;5504;47.312;11.060;2023-07-29T01:20:29;3.53;;;2.80;;
10902;SDS011;5504;47.312;11.060;2023-07-29T01:22:59;3.83;;;2.40;;
10902;SDS011;5504;47.312;11.060;2023-07-29T01:25:24;4.57;;;2.70;;
10902;SDS011;5504;47.312;11.060;2023-07-29T01:27:51;3.80;;;2.70;;
10902;SDS011;5504;47.312;11.060;2023-07-29T01:30:17;4.60;;;2.80;;
10902;SDS011;5504;47.312;11.060;2023-07-29T01:38:01;3.30;;;2.70;;
10902;SDS011;5504;47.312;11.060;2023-07-29T01:40:31;3.47;;;2.73;;
10902;SDS011;5504;47.312;11.060;2023-07-29T01:42:58;2.93;;;2.63;;
10902;SDS011;5504;47.312;11.060;2023-07-29T01:45:24;3.17;;;2.50;;
10902;SDS011;5504;47.312;11.060;2023-07-29T01:47:50;3.73;;;2.50;;
10902;SDS011;5504;47.312;11.060;2023-07-29T01:50:16;3.00;;;2.70;;
10902;SDS011;5504;47.312;11.060;2023-07-29T01:52:42;4.00;;;2.70;;
10902;SDS011;5504;47.312;11.060;2023-07-29T01:55:08;3.00;;;2.57;;
10902;SDS011;5504;47.312;11.060;2023-07-29T01:57:34;4.37;;;2.60;;
10902;SDS011;5504;47.312;11.060;2023-07-29T01:59:59;3.13;;;2.53;;
10902;SDS011;5504;47.312;11.060;2023-07-29T02:02:25;4.93;;;2.77;;
10902;SDS011;5504;47.312;11.060;2023-07-29T02:04:51;3.97;;;2.60;;
10902;SDS011;5504;47.312;11.060;2023-07-29T02:07:20;3.77;;;2.53;;
10902;SDS011;5504;47.312;11.060;2023-07-29T02:09:46;4.90;;;2.53;;
10902;SDS011;5504;47.312;11.060;2023-07-29T02:12:11;3.80;;;2.70;;
10902;SDS011;5504;47.312;11.060;2023-07-29T02:14:37;2.90;;;2.60;;
10902;SDS011;5504;47.312;11.060;2023-07-29T02:17:03;3.17;;;2.70;;
10902;SDS011;5504;47.312;11.060;2023-07-29T02:19:28;3.10;;;2.17;;
10902;SDS011;5504;47.312;11.060;2023-07-29T02:21:54;2.50;;;2.30;;
10902;SDS011;5504;47.312;11.060;2023-07-29T02:24:20;4.60;;;2.67;;
10902;SDS011;5504;47.312;11.060;2023-07-29T02:26:45;2.67;;;2.47;;
10902;SDS011;5504;47.312;11.060;2023-07-29T02:29:11;2.73;;;2.40;;
10902;SDS011;5504;47.312;11.060;2023-07-29T02:31:37;2.97;;;2.40;;
10902;SDS011;5504;47.312;11.060;2023-07-29T02:34:03;2.50;;;2.30;;
10902;SDS011;5504;47.312;11.060;2023-07-29T02:36:29;3.30;;;2.63;;
10902;SDS011;5504;47.312;11.060;2023-07-29T02:38:55;4.90;;;2.90;;
10902;SDS011;5504;47.312;11.060;2023-07-29T02:41:20;3.93;;;2.87;;
10902;SDS011;5504;47.312;11.060;2023-07-29T02:43:49;3.17;;;2.67;;
10902;SDS011;5504;47.312;11.060;2023-07-29T02:46:15;3.13;;;2.70;;
10902;SDS011;5504;47.312;11.060;2023-07-29T02:48:42;3.00;;;2.70;;
10902;SDS011;5504;47.312;11.060;2023-07-29T02:51:08;3.03;;;2.60;;
10902;SDS011;5504;47.312;11.060;2023-07-29T02:53:33;2.93;;;2.63;;
10902;SDS011;5504;47.312;11.060;2023-07-29T02:56:01;5.03;;;2.90;;
10902;SDS011;5504;47.312;11.060;2023-07-29T02:58:28;5.07;;;3.07;;
10902;SDS011;5504;47.312;11.060;2023-07-29T03:01:00;4.00;;;2.90;;
10902;SDS011;5504;47.312;11.060;2023-07-29T03:03:29;3.20;;;2.70;;
10902;SDS011;5504;47.312;11.060;2023-07-29T03:06:02;2.80;;;2.47;;
10902;SDS011;5504;47.312;11.060;2023-07-29T03:08:29;4.17;;;2.60;;
10902;SDS011;5504;47.312;11.060;2023-07-29T03:10:55;3.30;;;2.70;;
10902;SDS011;5504;47.312;11.060;2023-07-29T03:13:21;3.97;;;2.60;;
10902;SDS011;5504;47.312;11.060;2023-07-29T03:15:47;3.20;;;2.50;;
10902;SDS011;5504;47.312;11.060;2023-07-29T03:18:13;4.67;;;2.90;;
10902;SDS011;5504;47.312;11.060;2023-07-29T03:20:39;3.00;;;2.70;;
10902;SDS011;5504;47.312;11.060;2023-07-29T03:23:05;4.37;;;3.00;;
10902;SDS011;5504;47.312;11.060;2023-07-29T03:25:31;3.40;;;3.10;;
10902;SDS011;5504;47.312;11.060;2023-07-29T03:27:57;2.90;;;2.60;;
10902;SDS011;5504;47.312;11.060;2023-07-29T03:30:23;3.17;;;2.60;;
10902;SDS011;5504;47.312;11.060;2023-07-29T03:32:49;3.77;;;2.80;;
10902;SDS011;5504;47.312;11.060;2023-07-29T03:35:14;3.47;;;2.90;;
10902;SDS011;5504;47.312;11.060;2023-07-29T03:37:40;3.83;;;3.00;;
10902;SDS011;5504;47.312;11.060;2023-07-29T03:40:06;3.30;;;3.00;;
10902;SDS011;5504;47.312;11.060;2023-07-29T03:42:33;3.63;;;3.13;;
10902;SDS011;5504;47.312;11.060;2023-07-29T03:44:58;4.07;;;2.97;;
10902;SDS011;5504;47.312;11.060;2023-07-29T03:47:24;3.93;;;3.00;;
10902;SDS011;5504;47.312;11.060;2023-07-29T03:49:50;4.57;;;3.03;;
10902;SDS011;5504;47.312;11.060;2023-07-29T03:52:15;4.13;;;3.30;;
10902;SDS011;5504;47.312;11.060;2023-07-29T03:54:41;3.90;;;2.70;;
10902;SDS011;5504;47.312;11.060;2023-07-29T03:57:07;3.30;;;2.87;;
10902;SDS011;5504;47.312;11.060;2023-07-29T03:59:32;3.50;;;2.80;;
10902;SDS011;5504;47.312;11.060;2023-07-29T04:01:58;3.87;;;3.17;;
10902;SDS011;5504;47.312;11.060;2023-07-29T04:04:24;3.77;;;3.10;;
10902;SDS011;5504;47.312;11.060;2023-07-29T04:06:50;3.30;;;3.00;;
10902;SDS011;5504;47.312;11.060;2023-07-29T04:09:15;4.80;;;3.10;;
10902;SDS011;5504;47.312;11.060;2023-07-29T04:11:41;3.73;;;3.37;;
10902;SDS011;5504;47.312;11.060;2023-07-29T04:14:07;4.63;;;3.60;;
10902;SDS011;5504;47.312;11.060;2023-07-29T04:16:33;3.43;;;3.10;;
10902;SDS011;5504;47.312;11.060;2023-07-29T04:18:58;3.60;;;3.20;;
10902;SDS011;5504;47.312;11.060;2023-07-29T04:21:24;3.30;;;3.00;;
10902;SDS011;5504;47.312;11.060;2023-07-29T04:23:50;3.20;;;2.90;;
10902;SDS011;5504;47.312;11.060;2023-07-29T04:26:15;3.30;;;3.00;;
10902;SDS011;5504;47.312;11.060;2023-07-29T04:28:41;3.20;;;2.90;;
10902;SDS011;5504;47.312;11.060;2023-07-29T04:31:07;3.70;;;3.30;;
10902;SDS011;5504;47.312;11.060;2023-07-29T04:33:33;4.20;;;3.07;;
10902;SDS011;5504;47.312;11.060;2023-07-29T04:35:59;5.63;;;3.50;;
10902;SDS011;5504;47.312;11.060;2023-07-29T04:38:30;3.87;;;2.90;;
10902;SDS011;5504;47.312;11.060;2023-07-29T04:40:59;4.63;;;3.23;;
10902;SDS011;5504;47.312;11.060;2023-07-29T04:43:31;3.30;;;3.00;;
10902;SDS011;5504;47.312;11.060;2023-07-29T04:45:57;3.60;;;3.30;;
10902;SDS011;5504;47.312;11.060;2023-07-29T04:48:23;4.03;;;3.60;;
10902;SDS011;5504;47.312;11.060;2023-07-29T04:50:48;4.23;;;3.60;;
10902;SDS011;5504;47.312;11.060;2023-07-29T04:53:14;3.50;;;3.20;;
10902;SDS011;5504;47.312;11.060;2023-07-29T04:55:41;3.40;;;3.10;;
10902;SDS011;5504;47.312;11.060;2023-07-29T04:58:08;5.30;;;3.10;;
10902;SDS011;5504;47.312;11.060;2023-07-29T05:00:34;3.37;;;3.07;;
10902;SDS011;5504;47.312;11.060;2023-07-29T05:03:00;3.60;;;3.30;;
10902;SDS011;5504;47.312;11.060;2023-07-29T05:05:26;3.60;;;3.30;;
10902;SDS011;5504;47.312;11.060;2023-07-29T05:07:52;5.20;;;3.20;;
10902;SDS011;5504;47.312;11.060;2023-07-29T05:10:18;3.47;;;3.17;;
10902;SDS011;5504;47.312;11.060;2023-07-29T05:12:44;3.60;;;3.20;;
10902;SDS011;5504;47.312;11.060;2023-07-29T05:15:10;3.50;;;3.20;;
10902;SDS011;5504;47.312;11.060;2023-07-29T05:17:35;4.40;;;3.73;;
10902;SDS011;5504;47.312;11.060;2023-07-29T05:20:01;4.23;;;3.83;;
10902;SDS011;5504;47.312;11.060;2023-07-29T05:22:27;4.23;;;3.47;;
10902;SDS011;5504;47.312;11.060;2023-07-29T05:24:53;3.33;;;3.03;;
10902;SDS011;5504;47.312;11.060;2023-07-29T05:27:19;6.23;;;3.90;;
10902;SDS011;5504;47.312;11.060;2023-07-29T05:29:44;4.70;;;4.13;;
10902;SDS011;5504;47.312;11.060;2023-07-29T05:32:10;4.33;;;3.93;;
10902;SDS011;5504;47.312;11.060;2023-07-29T05:34:35;5.57;;;4.20;;
10902;SDS011;5504;47.312;11.060;2023-07-29T05:37:01;4.53;;;4.13;;
10902;SDS011;5504;47.312;11.060;2023-07-29T05:39:27;4.40;;;4.00;;
10902;SDS011;5504;47.312;11.060;2023-07-29T05:41:53;4.50;;;4.03;;
10902;SDS011;5504;47.312;11.060;2023-07-29T05:44:19;4.50;;;4.10;;
10902;SDS011;5504;47.312;11.060;2023-07-29T05:46:44;5.67;;;3.80;;
10902;SDS011;5504;47.312;11.060;2023-07-29T05:49:10;4.23;;;3.80;;
10902;SDS011;5504;47.312;11.060;2023-07-29T05:51:36;4.40;;;3.83;;
10902;SDS011;5504;47.312;11.060;2023-07-29T05:54:02;4.57;;;3.93;;
10902;SDS011;5504;47.312;11.060;2023-07-29T05:56:28;4.50;;;4.10;;
10902;SDS011;5504;47.312;11.060;2023-07-29T05:58:56;6.77;;;4.60;;
10902;SDS011;5504;47.312;11.060;2023-07-29T06:01:22;5.20;;;4.50;;
10902;SDS011;5504;47.312;11.060;2023-07-29T06:03:48;4.23;;;3.83;;
10902;SDS011;5504;47.312;11.060;2023-07-29T06:06:14;5.37;;;4.03;;
10902;SDS011;5504;47.312;11.060;2023-07-29T06:08:40;4.40;;;3.97;;
10902;SDS011;5504;47.312;11.060;2023-07-29T06:11:06;4.60;;;4.20;;
10902;SDS011;5504;47.312;11.060;2023-07-29T06:13:32;4.67;;;4.27;;
10902;SDS011;5504;47.312;11.060;2023-07-29T06:15:58;4.53;;;4.07;;
10902;SDS011;5504;47.312;11.060;2023-07-29T06:18:24;4.50;;;4.10;;
10902;SDS011;5504;47.312;11.060;2023-07-29T06:20:50;4.47;;;4.07;;
10902;SDS011;5504;47.312;11.060;2023-07-29T06:23:16;4.27;;;3.90;;
10902;SDS011;5504;47.312;11.060;2023-07-29T06:25:42;4.07;;;3.63;;
10902;SDS011;5504;47.312;11.060;2023-07-29T06:28:08;4.53;;;3.63;;
10902;SDS011;5504;47.312;11.060;2023-07-29T06:30:35;4.40;;;4.00;;
10902;SDS011;5504;47.312;11.060;2023-07-29T06:33:01;4.30;;;3.90;;
10902;SDS011;5504;47.312;11.060;2023-07-29T06:35:28;5.87;;;4.00;;
10902;SDS011;5504;47.312;11.060;2023-07-29T06:37:53;4.87;;;3.77;;
10902;SDS011;5504;47.312;11.060;2023-07-29T06:40:19;5.23;;;4.07;;
10902;SDS011;5504;47.312;11.060;2023-07-29T06:42:45;4.10;;;3.70;;
10902;SDS011;5504;47.312;11.060;2023-07-29T06:45:11;4.23;;;3.83;;
10902;SDS011;5504;47.312;11.060;2023-07-29T06:47:36;4.53;;;4.13;;
10902;SDS011;5504;47.312;11.060;2023-07-29T06:50:02;4.30;;;3.90;;
10902;SDS011;5504;47.312;11.060;2023-07-29T06:52:28;4.07;;;3.67;;
10902;SDS011;5504;47.312;11.060;2023-07-29T06:54:54;4.40;;;4.00;;
10902;SDS011;5504;47.312;11.060;2023-07-29T06:57:20;4.90;;;3.87;;
10902;SDS011;5504;47.312;11.060;2023-07-29T06:59:45;4.18;;;3.13;;
10902;SDS011;5504;47.312;11.060;2023-07-29T07:02:11;3.40;;;3.10;;
10902;SDS011;5504;47.312;11.060;2023-07-29T07:04:37;3.70;;;3.40;;
10902;SDS011;5504;47.312;11.060;2023-07-29T07:07:02;4.10;;;3.70;;
10902;SDS011;5504;47.312;11.060;2023-07-29T07:09:28;5.50;;;3.47;;
10902;SDS011;5504;47.312;11.060;2023-07-29T07:11:54;4.38;;;3.97;;
10902;SDS011;5504;47.312;11.060;2023-07-29T07:14:20;4.68;;;3.80;;
10902;SDS011;5504;47.312;11.060;2023-07-29T07:16:45;3.85;;;3.55;;
10902;SDS011;5504;47.312;11.060;2023-07-29T07:19:11;3.95;;;3.40;;
10902;SDS011;5504;47.312;11.060;2023-07-29T07:21:37;4.50;;;3.92;;
10902;SDS011;5504;47.312;11.060;2023-07-29T07:24:02;4.38;;;3.55;;
10902;SDS011;5504;47.312;11.060;2023-07-29T07:26:28;3.63;;;3.15;;
10902;SDS011;5504;47.312;11.060;2023-07-29T07:28:54;3.63;;;3.20;;
10902;SDS011;5504;47.312;11.060;2023-07-29T07:31:19;3.58;;;2.92;;
10902;SDS011;5504;47.312;11.060;2023-07-29T07:33:45;3.28;;;2.97;;
10902;SDS011;5504;47.312;11.060;2023-07-29T07:36:11;3.10;;;2.80;;
10902;SDS011;5504;47.312;11.060;2023-07-29T07:38:36;3.33;;;3.03;;
10902;SDS011;5504;47.312;11.060;2023-07-29T07:41:02;3.33;;;3.03;;
10902;SDS011;5504;47.312;11.060;2023-07-29T07:43:28;3.47;;;3.17;;
10902;SDS011;5504;47.312;11.060;2023-07-29T07:45:57;3.70;;;3.40;;
10902;SDS011;5504;47.312;11.060;2023-07-29T07:48:24;3.20;;;2.90;;
10902;SDS011;5504;47.312;11.060;2023-07-29T07:50:50;3.60;;;3.15;;
10902;SDS011;5504;47.312;11.060;2023-07-29T07:53:16;3.80;;;2.97;;
10902;SDS011;5504;47.312;11.060;2023-07-29T07:55:41;4.70;;;3.25;;
10902;SDS011;5504;47.312;11.060;2023-07-29T07:58:07;3.40;;;3.10;;
10902;SDS011;5504;47.312;11.060;2023-07-29T08:00:33;3.67;;;3.38;;
10902;SDS011;5504;47.312;11.060;2023-07-29T08:02:58;3.65;;;3.35;;
10902;SDS011;5504;47.312;11.060;2023-07-29T08:05:24;3.75;;;2.95;;
10902;SDS011;5504;47.312;11.060;2023-07-29T08:07:50;3.40;;;3.10;;
10902;SDS011;5504;47.312;11.060;2023-07-29T08:10:15;3.70;;;3.40;;
10902;SDS011;5504;47.312;11.060;2023-07-29T08:12:41;3.78;;;3.47;;
10902;SDS011;5504;47.312;11.060;2023-07-29T08:15:07;3.65;;;3.35;;
10902;SDS011;5504;47.312;11.060;2023-07-29T08:17:33;3.58;;;3.22;;
10902;SDS011;5504;47.312;11.060;2023-07-29T08:19:58;3.85;;;3.50;;
10902;SDS011;5504;47.312;11.060;2023-07-29T08:22:24;3.97;;;3.58;;
10902;SDS011;5504;47.312;11.060;2023-07-29T08:24:50;4.07;;;3.42;;
10902;SDS011;5504;47.312;11.060;2023-07-29T08:27:15;5.13;;;3.13;;
10902;SDS011;5504;47.312;11.060;2023-07-29T08:29:41;3.85;;;3.47;;
10902;SDS011;5504;47.312;11.060;2023-07-29T08:32:07;3.47;;;3.17;;
10902;SDS011;5504;47.312;11.060;2023-07-29T08:34:32;3.90;;;2.97;;
10902;SDS011;5504;47.312;11.060;2023-07-29T08:36:58;3.72;;;2.95;;
10902;SDS011;5504;47.312;11.060;2023-07-29T08:39:25;4.15;;;2.85;;
10902;SDS011;5504;47.312;11.060;2023-07-29T08:44:21;3.60;;;3.30;;
10902;SDS011;5504;47.312;11.060;2023-07-29T08:46:49;4.57;;;3.30;;
10902;SDS011;5504;47.312;11.060;2023-07-29T08:49:15;3.05;;;2.75;;
10902;SDS011;5504;47.312;11.060;2023-07-29T08:51:47;3.50;;;3.20;;
10902;SDS011;5504;47.312;11.060;2023-07-29T08:54:14;3.03;;;2.70;;
10902;SDS011;5504;47.312;11.060;2023-07-29T08:56:41;3.63;;;2.80;;
10902;SDS011;5504;47.312;11.060;2023-07-29T08:59:08;2.92;;;2.63;;
10902;SDS011;5504;47.312;11.060;2023-07-29T09:01:34;4.18;;;2.95;;
10902;SDS011;5504;47.312;11.060;2023-07-29T09:04:00;3.58;;;3.10;;
10902;SDS011;5504;47.312;11.060;2023-07-29T09:06:25;3.28;;;2.83;;
10902;SDS011;5504;47.312;11.060;2023-07-29T09:08:53;3.80;;;2.90;;
10902;SDS011;5504;47.312;11.060;2023-07-29T09:11:21;3.30;;;3.00;;
10902;SDS011;5504;47.312;11.060;2023-07-29T09:13:48;3.38;;;3.08;;
10902;SDS011;5504;47.312;11.060;2023-07-29T09:16:13;3.15;;;2.85;;
10902;SDS011;5504;47.312;11.060;2023-07-29T09:18:40;3.72;;;3.40;;
10902;SDS011;5504;47.312;11.060;2023-07-29T09:21:06;2.90;;;2.60;;
10902;SDS011;5504;47.312;11.060;2023-07-29T09:23:38;3.15;;;2.70;;
10902;SDS011;5504;47.312;11.060;2023-07-29T09:26:07;2.95;;;2.60;;
10902;SDS011;5504;47.312;11.060;2023-07-29T09:28:34;2.78;;;2.58;;
10902;SDS011;5504;47.312;11.060;2023-07-29T09:31:02;3.17;;;2.53;;
10902;SDS011;5504;47.312;11.060;2023-07-29T09:33:28;2.88;;;2.58;;
10902;SDS011;5504;47.312;11.060;2023-07-29T09:35:56;3.13;;;2.60;;
10902;SDS011;5504;47.312;11.060;2023-07-29T09:38:26;9.82;;;7.72;;
10902;SDS011;5504;47.312;11.060;2023-07-29T09:40:54;4.47;;;3.97;;
10902;SDS011;5504;47.312;11.060;2023-07-29T09:43:25;3.05;;;2.63;;
10902;SDS011;5504;47.312;11.060;2023-07-29T09:46:03;3.83;;;2.83;;
10902;SDS011;5504;47.312;11.060;2023-07-29T09:48:36;3.25;;;2.88;;
10902;SDS011;5504;47.312;11.060;2023-07-29T09:51:13;3.00;;;2.75;;
10902;SDS011;5504;47.312;11.060;2023-07-29T09:53:42;4.25;;;2.95;;
10902;SDS011;5504;47.312;11.060;2023-07-29T09:56:10;3.20;;;2.90;;
10902;SDS011;5504;47.312;11.060;2023-07-29T09:58:37;3.63;;;2.63;;
10902;SDS011;5504;47.312;11.060;2023-07-29T10:01:04;3.10;;;2.80;;
10902;SDS011;5504;47.312;11.060;2023-07-29T10:03:33;3.25;;;2.88;;
10902;SDS011;5504;47.312;11.060;2023-07-29T10:06:05;3.80;;;2.95;;
10902;SDS011;5504;47.312;11.060;2023-07-29T10:08:32;3.25;;;2.95;;
10902;SDS011;5504;47.312;11.060;2023-07-29T10:11:05;4.38;;;2.60;;
10902;SDS011;5504;47.312;11.060;2023-07-29T10:13:32;3.28;;;2.97;;
10902;SDS011;5504;47.312;11.060;2023-07-29T10:15:58;2.78;;;2.58;;
10902;SDS011;5504;47.312;11.060;2023-07-29T10:18:27;2.90;;;2.60;;
10902;SDS011;5504;47.312;11.060;2023-07-29T10:20:53;3.15;;;2.85;;
10902;SDS011;5504;47.312;11.060;2023-07-29T10:23:22;2.75;;;2.55;;
10902;SDS011;5504;47.312;11.060;2023-07-29T10:25:57;2.85;;;2.65;;
10902;SDS011;5504;47.312;11.060;2023-07-29T10:28:31;3.08;;;2.78;;
10902;SDS011;5504;47.312;11.060;2023-07-29T10:30:57;2.70;;;2.50;;
10902;SDS011;5504;47.312;11.060;2023-07-29T10:33:24;2.72;;;2.53;;
10902;SDS011;5504;47.312;11.060;2023-07-29T10:35:53;4.15;;;3.05;;
10902;SDS011;5504;47.312;11.060;2023-07-29T10:38:23;3.47;;;2.67;;
10902;SDS011;5504;47.312;11.060;2023-07-29T10:40:50;3.47;;;2.60;;
10902;SDS011;5504;47.312;11.060;2023-07-29T10:43:31;3.03;;;2.60;;
10902;SDS011;5504;47.312;11.060;2023-07-29T10:49:00;3.08;;;2.72;;
10902;SDS011;5504;47.312;11.060;2023-07-29T10:51:36;2.97;;;2.78;;
10902;SDS011;5504;47.312;11.060;2023-07-29T10:54:12;3.40;;;3.10;;
10902;SDS011;5504;47.312;11.060;2023-07-29T10:56:42;2.90;;;2.65;;
10902;SDS011;5504;47.312;11.060;2023-07-29T11:01:41;3.13;;;2.80;;
10902;SDS011;5504;47.312;11.060;2023-07-29T11:12:34;3.40;;;3.10;;
10902;SDS011;5504;47.312;11.060;2023-07-29T11:15:06;3.75;;;3.10;;
10902;SDS011;5504;47.312;11.060;2023-07-29T11:17:42;4.40;;;3.30;;
10902;SDS011;5504;47.312;11.060;2023-07-29T11:20:28;3.28;;;2.97;;
10902;SDS011;5504;47.312;11.060;2023-07-29T11:22:55;3.72;;;3.08;;
10902;SDS011;5504;47.312;11.060;2023-07-29T11:25:23;3.20;;;2.90;;
10902;SDS011;5504;47.312;11.060;2023-07-29T11:27:54;3.30;;;3.00;;
10902;SDS011;5504;47.312;11.060;2023-07-29T11:30:20;3.28;;;2.97;;
10902;SDS011;5504;47.312;11.060;2023-07-29T11:32:48;3.08;;;2.78;;
10902;SDS011;5504;47.312;11.060;2023-07-29T11:35:15;3.35;;;3.08;;
10902;SDS011;5504;47.312;11.060;2023-07-29T11:37:43;3.25;;;2.95;;
10902;SDS011;5504;47.312;11.060;2023-07-29T11:40:17;3.40;;;3.10;;
10902;SDS011;5504;47.312;11.060;2023-07-29T11:42:44;3.05;;;2.75;;
10902;SDS011;5504;47.312;11.060;2023-07-29T11:45:17;3.50;;;3.20;;
10902;SDS011;5504;47.312;11.060;2023-07-29T11:47:45;3.55;;;3.25;;
10902;SDS011;5504;47.312;11.060;2023-07-29T11:50:11;3.40;;;3.10;;
10902;SDS011;5504;47.312;11.060;2023-07-29T11:52:42;3.33;;;3.03;;
10902;SDS011;5504;47.312;11.060;2023-07-29T11:55:11;3.50;;;3.20;;
10902;SDS011;5504;47.312;11.060;2023-07-29T11:57:37;3.22;;;2.92;;
10902;SDS011;5504;47.312;11.060;2023-07-29T12:00:05;3.40;;;3.10;;
10902;SDS011;5504;47.312;11.060;2023-07-29T12:02:41;3.60;;;3.30;;
10902;SDS011;5504;47.312;11.060;2023-07-29T12:05:11;3.47;;;3.17;;
10902;SDS011;5504;47.312;11.060;2023-07-29T12:07:38;3.70;;;3.40;;
10902;SDS011;5504;47.312;11.060;2023-07-29T12:10:04;3.40;;;3.10;;
10902;SDS011;5504;47.312;11.060;2023-07-29T12:12:30;3.30;;;3.00;;
10902;SDS011;5504;47.312;11.060;2023-07-29T12:14:56;3.45;;;3.10;;
10902;SDS011;5504;47.312;11.060;2023-07-29T12:17:23;3.13;;;2.83;;
10902;SDS011;5504;47.312;11.060;2023-07-29T12:19:48;3.50;;;3.20;;
10902;SDS011;5504;47.312;11.060;2023-07-29T12:22:17;3.20;;;2.90;;
10902;SDS011;5504;47.312;11.060;2023-07-29T12:24:44;3.25;;;2.95;;
10902;SDS011;5504;47.312;11.060;2023-07-29T12:27:11;3.33;;;3.08;;
10902;SDS011;5504;47.312;11.060;2023-07-29T12:29:43;3.15;;;2.85;;
10902;SDS011;5504;47.312;11.060;2023-07-29T12:32:11;3.47;;;3.17;;
10902;SDS011;5504;47.312;11.060;2023-07-29T12:34:38;3.60;;;3.30;;
10902;SDS011;5504;47.312;11.060;2023-07-29T12:37:07;2.95;;;2.65;;
10902;SDS011;5504;47.312;11.060;2023-07-29T12:39:33;3.17;;;2.90;;
10902;SDS011;5504;47.312;11.060;2023-07-29T12:42:01;3.20;;;2.97;;
10902;SDS011;5504;47.312;11.060;2023-07-29T12:44:31;3.22;;;2.92;;
10902;SDS011;5504;47.312;11.060;2023-07-29T12:47:00;3.20;;;2.90;;
10902;SDS011;5504;47.312;11.060;2023-07-29T12:49:26;3.30;;;3.00;;
10902;SDS011;5504;47.312;11.060;2023-07-29T12:51:53;3.40;;;3.10;;
10902;SDS011;5504;47.312;11.060;2023-07-29T12:54:19;3.40;;;3.10;;
10902;SDS011;5504;47.312;11.060;2023-07-29T12:56:44;3.72;;;3.20;;
10902;SDS011;5504;47.312;11.060;2023-07-29T12:59:10;3.45;;;3.17;;
10902;SDS011;5504;47.312;11.060;2023-07-29T13:01:36;3.40;;;3.10;;
10902;SDS011;5504;47.312;11.060;2023-07-29T13:04:01;3.20;;;2.90;;
10902;SDS011;5504;47.312;11.060;2023-07-29T13:06:27;3.40;;;3.10;;
10902;SDS011;5504;47.312;11.060;2023-07-29T13:08:53;3.15;;;2.80;;
10902;SDS011;5504;47.312;11.060;2023-07-29T13:11:18;3.08;;;2.70;;
10902;SDS011;5504;47.312;11.060;2023-07-29T13:13:44;2.75;;;2.30;;
10902;SDS011;5504;47.312;11.060;2023-07-29T13:16:10;2.85;;;2.60;;
10902;SDS011;5504;47.312;11.060;2023-07-29T13:18:36;3.30;;;2.88;;
10902;SDS011;5504;47.312;11.060;2023-07-29T13:21:02;2.53;;;2.33;;
10902;SDS011;5504;47.312;11.060;2023-07-29T13:23:28;2.63;;;2.40;;
10902;SDS011;5504;47.312;11.060;2023-07-29T13:25:55;2.88;;;2.58;;
10902;SDS011;5504;47.312;11.060;2023-07-29T13:28:21;3.25;;;2.50;;
10902;SDS011;5504;47.312;11.060;2023-07-29T13:30:46;2.90;;;2.60;;
10902;SDS011;5504;47.312;11.060;2023-07-29T13:33:12;3.40;;;2.65;;
10902;SDS011;5504;47.312;11.060;2023-07-29T13:35:38;4.32;;;2.95;;
10902;SDS011;5504;47.312;11.060;2023-07-29T13:38:03;3.00;;;2.70;;
10902;SDS011;5504;47.312;11.060;2023-07-29T13:40:29;3.85;;;2.65;;
10902;SDS011;5504;47.312;11.060;2023-07-29T13:42:55;3.00;;;2.65;;
10902;SDS011;5504;47.312;11.060;2023-07-29T13:45:21;3.50;;;3.20;;
10902;SDS011;5504;47.312;11.060;2023-07-29T13:47:47;2.95;;;2.75;;
10902;SDS011;5504;47.312;11.060;2023-07-29T13:50:13;3.08;;;2.78;;
10902;SDS011;5504;47.312;11.060;2023-07-29T13:52:39;3.03;;;2.78;;
10902;SDS011;5504;47.312;11.060;2023-07-29T13:55:05;3.00;;;2.70;;
10902;SDS011;5504;47.312;11.060;2023-07-29T13:57:31;3.25;;;2.95;;
10902;SDS011;5504;47.312;11.060;2023-07-29T13:59:57;3.45;;;3.08;;
10902;SDS011;5504;47.312;11.060;2023-07-29T14:02:23;4.38;;;2.90;;
10902;SDS011;5504;47.312;11.060;2023-07-29T14:04:49;2.75;;;2.55;;
10902;SDS011;5504;47.312;11.060;2023-07-29T14:07:14;3.28;;;2.90;;
10902;SDS011;5504;47.312;11.060;2023-07-29T14:09:40;3.03;;;2.80;;
10902;SDS011;5504;47.312;11.060;2023-07-29T14:12:08;3.67;;;2.92;;
10902;SDS011;5504;47.312;11.060;2023-07-29T14:14:37;3.72;;;3.30;;
10902;SDS011;5504;47.312;11.060;2023-07-29T14:17:03;3.53;;;3.22;;
10902;SDS011;5504;47.312;11.060;2023-07-29T14:19:29;3.55;;;3.03;;
10902;SDS011;5504;47.312;11.060;2023-07-29T14:21:55;3.45;;;3.15;;
10902;SDS011;5504;47.312;11.060;2023-07-29T14:24:20;3.85;;;3.25;;
10902;SDS011;5504;47.312;11.060;2023-07-29T14:26:47;3.90;;;3.50;;
10902;SDS011;5504;47.312;11.060;2023-07-29T14:29:13;3.88;;;3.28;;
10902;SDS011;5504;47.312;11.060;2023-07-29T14:31:39;3.90;;;3.50;;
10902;SDS011;5504;47.312;11.060;2023-07-29T14:34:04;5.35;;;3.90;;
10902;SDS011;5504;47.312;11.060;2023-07-29T14:36:30;5.50;;;3.95;;
10902;SDS011;5504;47.312;11.060;2023-07-29T14:38:56;4.72;;;3.72;;
10902;SDS011;5504;47.312;11.060;2023-07-29T14:41:21;5.82;;;3.90;;
10902;SDS011;5504;47.312;11.060;2023-07-29T14:43:47;5.63;;;3.88;;
10902;SDS011;5504;47.312;11.060;2023-07-29T14:46:13;4.03;;;3.60;;
10902;SDS011;5504;47.312;11.060;2023-07-29T14:48:38;5.45;;;3.95;;
10902;SDS011;5504;47.312;11.060;2023-07-29T14:51:04;4.85;;;4.10;;
10902;SDS011;5504;47.312;11.060;2023-07-29T14:53:30;5.03;;;3.65;;
10902;SDS011;5504;47.312;11.060;2023-07-29T14:55:55;5.85;;;3.88;;
10902;SDS011;5504;47.312;11.060;2023-07-29T14:58:21;5.82;;;3.97;;
10902;SDS011;5504;47.312;11.060;2023-07-29T15:00:48;6.55;;;3.58;;
10902;SDS011;5504;47.312;11.060;2023-07-29T15:03:14;6.95;;;4.32;;
10902;SDS011;5504;47.312;11.060;2023-07-29T15:05:39;6.00;;;4.00;;
10902;SDS011;5504;47.312;11.060;2023-07-29T15:08:05;4.43;;;4.00;;
10902;SDS011;5504;47.312;11.060;2023-07-29T15:10:31;4.00;;;3.53;;